sensor_id;sensor_type;location;lat;lon;timestamp;P1;durP1;ratioP1;P2;durP2;ratioP2
31091;SDS011;67728;53.122;12.776;2023-05-31T00:01:10;312.73;;;62.17;;
31091;SDS011;67728;53.122;12.776;2023-05-31T00:02:42;316.07;;;62.30;;
31091;SDS011;67728;53.122;12.776;2023-05-31T00:04:14;312.37;;;61.70;;
31091;SDS011;67728;53.122;12.776;2023-05-31T00:05:46;313.43;;;62.40;;
31091;SDS011;67728;53.122;12.776;2023-05-31T00:07:17;313.30;;;62.43;;
31091;SDS011;67728;53.122;12.776;2023-05-31T00:08:48;313.70;;;62.20;;
31091;SDS011;67728;53.122;12.776;2023-05-31T00:10:20;315.90;;;62.80;;
31091;SDS011;67728;53.122;12.776;2023-05-31T00:11:51;314.70;;;62.80;;
31091;SDS011;67728;53.122;12.776;2023-05-31T00:13:22;313.47;;;62.30;;
31091;SDS011;67728;53.122;12.776;2023-05-31T00:14:54;313.13;;;62.40;;
31091;SDS011;67728;53.122;12.776;2023-05-31T00:16:26;315.40;;;62.97;;
31091;SDS011;67728;53.122;12.776;2023-05-31T00:17:56;314.67;;;61.97;;
31091;SDS011;67728;53.122;12.776;2023-05-31T00:19:29;316.07;;;62.33;;
31091;SDS011;67728;53.122;12.776;2023-05-31T00:21:01;313.33;;;61.83;;
31091;SDS011;67728;53.122;12.776;2023-05-31T00:22:32;315.43;;;62.03;;
31091;SDS011;67728;53.122;12.776;2023-05-31T00:24:04;313.93;;;61.50;;
31091;SDS011;67728;53.122;12.776;2023-05-31T00:25:36;314.27;;;62.07;;
31091;SDS011;67728;53.122;12.776;2023-05-31T00:27:08;311.40;;;61.27;;
31091;SDS011;67728;53.122;12.776;2023-05-31T00:28:39;311.10;;;61.03;;
31091;SDS011;67728;53.122;12.776;2023-05-31T00:30:11;312.27;;;60.90;;
31091;SDS011;67728;53.122;12.776;2023-05-31T00:31:43;312.20;;;61.07;;
31091;SDS011;67728;53.122;12.776;2023-05-31T00:33:15;311.17;;;61.10;;
31091;SDS011;67728;53.122;12.776;2023-05-31T00:34:48;313.70;;;61.57;;
31091;SDS011;67728;53.122;12.776;2023-05-31T00:36:20;312.90;;;61.47;;
31091;SDS011;67728;53.122;12.776;2023-05-31T00:37:50;311.17;;;61.37;;
31091;SDS011;67728;53.122;12.776;2023-05-31T00:39:22;311.57;;;60.70;;
31091;SDS011;67728;53.122;12.776;2023-05-31T00:40:54;313.10;;;61.40;;
31091;SDS011;67728;53.122;12.776;2023-05-31T00:42:25;311.53;;;61.10;;
31091;SDS011;67728;53.122;12.776;2023-05-31T00:43:57;311.63;;;61.27;;
31091;SDS011;67728;53.122;12.776;2023-05-31T00:45:28;314.20;;;61.50;;
31091;SDS011;67728;53.122;12.776;2023-05-31T00:47:02;313.40;;;61.20;;
31091;SDS011;67728;53.122;12.776;2023-05-31T00:48:34;314.03;;;61.07;;
31091;SDS011;67728;53.122;12.776;2023-05-31T00:50:09;316.20;;;62.10;;
31091;SDS011;67728;53.122;12.776;2023-05-31T00:51:41;313.20;;;61.43;;
31091;SDS011;67728;53.122;12.776;2023-05-31T00:53:13;311.43;;;60.80;;
31091;SDS011;67728;53.122;12.776;2023-05-31T00:54:45;314.50;;;61.83;;
31091;SDS011;67728;53.122;12.776;2023-05-31T00:56:17;307.07;;;59.43;;
31091;SDS011;67728;53.122;12.776;2023-05-31T00:57:51;310.73;;;60.27;;
31091;SDS011;67728;53.122;12.776;2023-05-31T00:59:23;311.13;;;60.17;;
31091;SDS011;67728;53.122;12.776;2023-05-31T01:00:55;309.63;;;59.73;;
31091;SDS011;67728;53.122;12.776;2023-05-31T01:02:26;309.80;;;60.20;;
31091;SDS011;67728;53.122;12.776;2023-05-31T01:04:02;309.70;;;59.50;;
31091;SDS011;67728;53.122;12.776;2023-05-31T01:05:35;310.57;;;60.20;;
31091;SDS011;67728;53.122;12.776;2023-05-31T01:07:07;308.50;;;59.77;;
31091;SDS011;67728;53.122;12.776;2023-05-31T01:08:39;311.73;;;60.20;;
31091;SDS011;67728;53.122;12.776;2023-05-31T01:10:10;312.00;;;60.30;;
31091;SDS011;67728;53.122;12.776;2023-05-31T01:11:47;307.70;;;59.37;;
31091;SDS011;67728;53.122;12.776;2023-05-31T01:13:29;308.03;;;59.00;;
31091;SDS011;67728;53.122;12.776;2023-05-31T01:15:06;307.73;;;59.03;;
31091;SDS011;67728;53.122;12.776;2023-05-31T01:16:45;311.37;;;59.77;;
31091;SDS011;67728;53.122;12.776;2023-05-31T01:18:22;314.27;;;60.50;;
31091;SDS011;67728;53.122;12.776;2023-05-31T01:20:03;311.50;;;59.73;;
31091;SDS011;67728;53.122;12.776;2023-05-31T01:21:44;309.67;;;58.73;;
31091;SDS011;67728;53.122;12.776;2023-05-31T01:23:29;305.97;;;59.20;;
31091;SDS011;67728;53.122;12.776;2023-05-31T01:25:20;307.63;;;59.17;;
31091;SDS011;67728;53.122;12.776;2023-05-31T01:26:59;306.90;;;58.17;;
31091;SDS011;67728;53.122;12.776;2023-05-31T01:28:33;311.13;;;59.43;;
31091;SDS011;67728;53.122;12.776;2023-05-31T01:30:07;307.83;;;58.47;;
31091;SDS011;67728;53.122;12.776;2023-05-31T01:31:41;307.97;;;58.67;;
31091;SDS011;67728;53.122;12.776;2023-05-31T01:33:14;308.00;;;58.33;;
31091;SDS011;67728;53.122;12.776;2023-05-31T01:34:47;306.00;;;58.40;;
31091;SDS011;67728;53.122;12.776;2023-05-31T01:36:20;304.30;;;57.87;;
31091;SDS011;67728;53.122;12.776;2023-05-31T01:37:51;303.87;;;57.90;;
31091;SDS011;67728;53.122;12.776;2023-05-31T01:39:23;307.73;;;58.80;;
31091;SDS011;67728;53.122;12.776;2023-05-31T01:40:55;305.53;;;58.80;;
31091;SDS011;67728;53.122;12.776;2023-05-31T01:42:30;308.60;;;59.20;;
31091;SDS011;67728;53.122;12.776;2023-05-31T01:44:02;303.50;;;58.23;;
31091;SDS011;67728;53.122;12.776;2023-05-31T01:45:33;304.87;;;58.50;;
31091;SDS011;67728;53.122;12.776;2023-05-31T01:47:06;304.80;;;58.37;;
31091;SDS011;67728;53.122;12.776;2023-05-31T01:48:39;308.20;;;59.20;;
31091;SDS011;67728;53.122;12.776;2023-05-31T01:50:13;303.80;;;58.70;;
31091;SDS011;67728;53.122;12.776;2023-05-31T01:51:44;304.87;;;58.50;;
31091;SDS011;67728;53.122;12.776;2023-05-31T01:53:17;311.17;;;59.47;;
31091;SDS011;67728;53.122;12.776;2023-05-31T01:54:49;306.13;;;58.57;;
31091;SDS011;67728;53.122;12.776;2023-05-31T01:56:20;306.23;;;58.53;;
31091;SDS011;67728;53.122;12.776;2023-05-31T01:57:56;303.50;;;58.00;;
31091;SDS011;67728;53.122;12.776;2023-05-31T01:59:30;323.50;;;79.30;;
31091;SDS011;67728;53.122;12.776;2023-05-31T02:01:03;308.23;;;58.43;;
31091;SDS011;67728;53.122;12.776;2023-05-31T02:02:35;308.83;;;57.93;;
31091;SDS011;67728;53.122;12.776;2023-05-31T02:04:07;308.20;;;58.17;;
31091;SDS011;67728;53.122;12.776;2023-05-31T02:05:53;313.57;;;59.00;;
31091;SDS011;67728;53.122;12.776;2023-05-31T02:07:25;309.63;;;58.43;;
31091;SDS011;67728;53.122;12.776;2023-05-31T02:08:58;306.73;;;57.70;;
31091;SDS011;67728;53.122;12.776;2023-05-31T02:10:29;307.73;;;58.03;;
31091;SDS011;67728;53.122;12.776;2023-05-31T02:12:01;311.67;;;59.17;;
31091;SDS011;67728;53.122;12.776;2023-05-31T02:13:34;308.40;;;58.10;;
31091;SDS011;67728;53.122;12.776;2023-05-31T02:15:06;306.50;;;58.17;;
31091;SDS011;67728;53.122;12.776;2023-05-31T02:16:40;312.00;;;58.83;;
31091;SDS011;67728;53.122;12.776;2023-05-31T02:18:12;309.13;;;58.57;;
31091;SDS011;67728;53.122;12.776;2023-05-31T02:19:46;306.33;;;58.73;;
31091;SDS011;67728;53.122;12.776;2023-05-31T02:21:18;309.30;;;58.90;;
31091;SDS011;67728;53.122;12.776;2023-05-31T02:22:49;308.30;;;58.83;;
31091;SDS011;67728;53.122;12.776;2023-05-31T02:24:20;312.97;;;59.33;;
31091;SDS011;67728;53.122;12.776;2023-05-31T02:25:52;309.63;;;58.87;;
31091;SDS011;67728;53.122;12.776;2023-05-31T02:27:25;307.10;;;57.77;;
31091;SDS011;67728;53.122;12.776;2023-05-31T02:29:00;308.00;;;57.90;;
31091;SDS011;67728;53.122;12.776;2023-05-31T02:30:31;311.10;;;58.60;;
31091;SDS011;67728;53.122;12.776;2023-05-31T02:32:06;310.17;;;58.30;;
31091;SDS011;67728;53.122;12.776;2023-05-31T02:33:39;308.80;;;58.07;;
31091;SDS011;67728;53.122;12.776;2023-05-31T02:35:11;308.83;;;58.10;;
31091;SDS011;67728;53.122;12.776;2023-05-31T02:36:41;309.23;;;58.20;;
31091;SDS011;67728;53.122;12.776;2023-05-31T02:38:13;307.77;;;57.70;;
31091;SDS011;67728;53.122;12.776;2023-05-31T02:39:44;311.80;;;59.27;;
31091;SDS011;67728;53.122;12.776;2023-05-31T02:41:15;309.73;;;57.67;;
31091;SDS011;67728;53.122;12.776;2023-05-31T02:42:46;309.67;;;58.10;;
31091;SDS011;67728;53.122;12.776;2023-05-31T02:44:19;315.17;;;59.20;;
31091;SDS011;67728;53.122;12.776;2023-05-31T02:45:51;318.23;;;59.83;;
31091;SDS011;67728;53.122;12.776;2023-05-31T02:47:23;333.17;;;62.70;;
31091;SDS011;67728;53.122;12.776;2023-05-31T02:48:54;331.20;;;61.90;;
31091;SDS011;67728;53.122;12.776;2023-05-31T02:50:25;310.57;;;58.83;;
31091;SDS011;67728;53.122;12.776;2023-05-31T02:51:56;309.27;;;58.07;;
31091;SDS011;67728;53.122;12.776;2023-05-31T02:53:27;309.20;;;57.77;;
31091;SDS011;67728;53.122;12.776;2023-05-31T02:54:59;306.80;;;57.57;;
31091;SDS011;67728;53.122;12.776;2023-05-31T02:56:31;311.87;;;59.00;;
31091;SDS011;67728;53.122;12.776;2023-05-31T02:58:02;307.93;;;57.87;;
31091;SDS011;67728;53.122;12.776;2023-05-31T02:59:36;313.63;;;58.73;;
31091;SDS011;67728;53.122;12.776;2023-05-31T03:01:07;310.40;;;58.50;;
31091;SDS011;67728;53.122;12.776;2023-05-31T03:02:39;309.03;;;58.77;;
31091;SDS011;67728;53.122;12.776;2023-05-31T03:04:11;309.00;;;58.27;;
31091;SDS011;67728;53.122;12.776;2023-05-31T03:05:43;308.60;;;58.00;;
31091;SDS011;67728;53.122;12.776;2023-05-31T03:07:15;309.50;;;58.03;;
31091;SDS011;67728;53.122;12.776;2023-05-31T03:08:46;310.87;;;58.50;;
31091;SDS011;67728;53.122;12.776;2023-05-31T03:10:18;309.97;;;58.13;;
31091;SDS011;67728;53.122;12.776;2023-05-31T03:11:49;308.23;;;57.57;;
31091;SDS011;67728;53.122;12.776;2023-05-31T03:13:20;307.27;;;57.33;;
31091;SDS011;67728;53.122;12.776;2023-05-31T03:14:53;308.93;;;57.73;;
31091;SDS011;67728;53.122;12.776;2023-05-31T03:16:25;309.63;;;57.70;;
31091;SDS011;67728;53.122;12.776;2023-05-31T03:17:58;308.97;;;57.90;;
31091;SDS011;67728;53.122;12.776;2023-05-31T03:19:30;307.97;;;57.33;;
31091;SDS011;67728;53.122;12.776;2023-05-31T03:21:01;307.83;;;57.50;;
31091;SDS011;67728;53.122;12.776;2023-05-31T03:22:33;308.20;;;57.53;;
31091;SDS011;67728;53.122;12.776;2023-05-31T03:24:04;308.63;;;57.80;;
31091;SDS011;67728;53.122;12.776;2023-05-31T03:25:36;308.93;;;57.07;;
31091;SDS011;67728;53.122;12.776;2023-05-31T03:27:08;309.10;;;57.77;;
31091;SDS011;67728;53.122;12.776;2023-05-31T03:28:39;311.23;;;58.53;;
31091;SDS011;67728;53.122;12.776;2023-05-31T03:30:12;311.93;;;57.90;;
31091;SDS011;67728;53.122;12.776;2023-05-31T03:31:44;308.07;;;57.50;;
31091;SDS011;67728;53.122;12.776;2023-05-31T03:33:16;307.70;;;57.47;;
31091;SDS011;67728;53.122;12.776;2023-05-31T03:34:48;311.83;;;58.33;;
31091;SDS011;67728;53.122;12.776;2023-05-31T03:36:19;312.47;;;58.30;;
31091;SDS011;67728;53.122;12.776;2023-05-31T03:37:51;310.43;;;58.10;;
31091;SDS011;67728;53.122;12.776;2023-05-31T03:39:23;308.13;;;57.50;;
31091;SDS011;67728;53.122;12.776;2023-05-31T03:40:54;309.23;;;58.03;;
31091;SDS011;67728;53.122;12.776;2023-05-31T03:42:25;308.80;;;57.40;;
31091;SDS011;67728;53.122;12.776;2023-05-31T03:43:57;309.80;;;58.77;;
31091;SDS011;67728;53.122;12.776;2023-05-31T03:45:30;309.77;;;58.13;;
31091;SDS011;67728;53.122;12.776;2023-05-31T03:47:02;306.63;;;57.63;;
31091;SDS011;67728;53.122;12.776;2023-05-31T03:48:34;310.27;;;58.20;;
31091;SDS011;67728;53.122;12.776;2023-05-31T03:50:06;308.50;;;57.67;;
31091;SDS011;67728;53.122;12.776;2023-05-31T03:51:38;312.23;;;58.63;;
31091;SDS011;67728;53.122;12.776;2023-05-31T03:53:08;307.80;;;58.67;;
31091;SDS011;67728;53.122;12.776;2023-05-31T03:54:40;312.00;;;58.50;;
31091;SDS011;67728;53.122;12.776;2023-05-31T03:56:12;315.03;;;59.77;;
31091;SDS011;67728;53.122;12.776;2023-05-31T03:57:43;309.57;;;58.37;;
31091;SDS011;67728;53.122;12.776;2023-05-31T03:59:15;310.70;;;58.60;;
31091;SDS011;67728;53.122;12.776;2023-05-31T04:00:48;315.33;;;84.40;;
31091;SDS011;67728;53.122;12.776;2023-05-31T04:02:20;311.83;;;58.50;;
31091;SDS011;67728;53.122;12.776;2023-05-31T04:03:51;311.23;;;58.70;;
31091;SDS011;67728;53.122;12.776;2023-05-31T04:05:23;309.73;;;58.93;;
31091;SDS011;67728;53.122;12.776;2023-05-31T04:06:54;311.20;;;58.47;;
31091;SDS011;67728;53.122;12.776;2023-05-31T04:08:26;311.20;;;58.27;;
31091;SDS011;67728;53.122;12.776;2023-05-31T04:09:58;309.83;;;57.97;;
31091;SDS011;67728;53.122;12.776;2023-05-31T04:11:29;309.50;;;58.07;;
31091;SDS011;67728;53.122;12.776;2023-05-31T04:13:01;308.30;;;58.00;;
31091;SDS011;67728;53.122;12.776;2023-05-31T04:14:32;313.10;;;59.20;;
31091;SDS011;67728;53.122;12.776;2023-05-31T04:16:05;315.57;;;59.43;;
31091;SDS011;67728;53.122;12.776;2023-05-31T04:17:36;311.93;;;59.40;;
31091;SDS011;67728;53.122;12.776;2023-05-31T04:19:08;313.20;;;59.33;;
31091;SDS011;67728;53.122;12.776;2023-05-31T04:20:40;308.27;;;58.30;;
31091;SDS011;67728;53.122;12.776;2023-05-31T04:22:12;312.40;;;59.00;;
31091;SDS011;67728;53.122;12.776;2023-05-31T04:23:43;310.77;;;58.50;;
31091;SDS011;67728;53.122;12.776;2023-05-31T04:25:15;307.93;;;58.10;;
31091;SDS011;67728;53.122;12.776;2023-05-31T04:26:47;312.67;;;59.17;;
31091;SDS011;67728;53.122;12.776;2023-05-31T04:28:19;311.40;;;58.63;;
31091;SDS011;67728;53.122;12.776;2023-05-31T04:29:51;310.23;;;58.60;;
31091;SDS011;67728;53.122;12.776;2023-05-31T04:31:25;311.83;;;58.97;;
31091;SDS011;67728;53.122;12.776;2023-05-31T04:32:58;309.20;;;58.50;;
31091;SDS011;67728;53.122;12.776;2023-05-31T04:34:30;311.03;;;58.73;;
31091;SDS011;67728;53.122;12.776;2023-05-31T04:36:01;314.47;;;59.80;;
31091;SDS011;67728;53.122;12.776;2023-05-31T04:37:34;309.07;;;58.73;;
31091;SDS011;67728;53.122;12.776;2023-05-31T04:39:05;309.47;;;59.23;;
31091;SDS011;67728;53.122;12.776;2023-05-31T04:40:43;310.20;;;58.57;;
31091;SDS011;67728;53.122;12.776;2023-05-31T04:42:15;312.73;;;58.93;;
31091;SDS011;67728;53.122;12.776;2023-05-31T04:43:47;309.53;;;58.50;;
31091;SDS011;67728;53.122;12.776;2023-05-31T04:45:19;309.67;;;58.70;;
31091;SDS011;67728;53.122;12.776;2023-05-31T04:46:52;309.30;;;58.40;;
31091;SDS011;67728;53.122;12.776;2023-05-31T04:48:24;305.43;;;58.00;;
31091;SDS011;67728;53.122;12.776;2023-05-31T04:49:56;311.67;;;58.80;;
31091;SDS011;67728;53.122;12.776;2023-05-31T04:51:28;312.00;;;59.30;;
31091;SDS011;67728;53.122;12.776;2023-05-31T04:53:01;308.30;;;58.37;;
31091;SDS011;67728;53.122;12.776;2023-05-31T04:54:32;309.83;;;58.90;;
31091;SDS011;67728;53.122;12.776;2023-05-31T04:56:04;307.20;;;58.20;;
31091;SDS011;67728;53.122;12.776;2023-05-31T04:57:39;310.23;;;59.17;;
31091;SDS011;67728;53.122;12.776;2023-05-31T04:59:11;312.53;;;59.37;;
31091;SDS011;67728;53.122;12.776;2023-05-31T05:00:43;315.53;;;60.20;;
31091;SDS011;67728;53.122;12.776;2023-05-31T05:02:17;310.80;;;59.50;;
31091;SDS011;67728;53.122;12.776;2023-05-31T05:03:49;311.93;;;60.00;;
31091;SDS011;67728;53.122;12.776;2023-05-31T05:05:23;314.17;;;60.40;;
31091;SDS011;67728;53.122;12.776;2023-05-31T05:06:55;315.40;;;60.43;;
31091;SDS011;67728;53.122;12.776;2023-05-31T05:08:27;313.07;;;60.53;;
31091;SDS011;67728;53.122;12.776;2023-05-31T05:09:58;314.60;;;60.70;;
31091;SDS011;67728;53.122;12.776;2023-05-31T05:11:29;314.00;;;60.73;;
31091;SDS011;67728;53.122;12.776;2023-05-31T05:13:01;316.97;;;61.63;;
31091;SDS011;67728;53.122;12.776;2023-05-31T05:14:33;315.80;;;61.37;;
31091;SDS011;67728;53.122;12.776;2023-05-31T05:16:05;315.23;;;61.70;;
31091;SDS011;67728;53.122;12.776;2023-05-31T05:17:38;316.30;;;61.97;;
31091;SDS011;67728;53.122;12.776;2023-05-31T05:19:11;313.30;;;61.17;;
31091;SDS011;67728;53.122;12.776;2023-05-31T05:20:42;314.43;;;61.40;;
31091;SDS011;67728;53.122;12.776;2023-05-31T05:22:14;312.67;;;60.77;;
31091;SDS011;67728;53.122;12.776;2023-05-31T05:23:46;314.97;;;61.97;;
31091;SDS011;67728;53.122;12.776;2023-05-31T05:25:17;314.73;;;62.00;;
31091;SDS011;67728;53.122;12.776;2023-05-31T05:26:50;315.80;;;62.23;;
31091;SDS011;67728;53.122;12.776;2023-05-31T05:28:22;314.53;;;62.30;;
31091;SDS011;67728;53.122;12.776;2023-05-31T05:29:53;317.40;;;63.00;;
31091;SDS011;67728;53.122;12.776;2023-05-31T05:31:26;317.80;;;63.30;;
31091;SDS011;67728;53.122;12.776;2023-05-31T05:32:59;316.40;;;62.77;;
31091;SDS011;67728;53.122;12.776;2023-05-31T05:34:30;321.87;;;64.37;;
31091;SDS011;67728;53.122;12.776;2023-05-31T05:36:02;318.63;;;63.73;;
31091;SDS011;67728;53.122;12.776;2023-05-31T05:37:34;323.60;;;66.20;;
31091;SDS011;67728;53.122;12.776;2023-05-31T05:39:06;315.30;;;63.50;;
31091;SDS011;67728;53.122;12.776;2023-05-31T05:40:38;319.50;;;64.50;;
31091;SDS011;67728;53.122;12.776;2023-05-31T05:42:08;320.13;;;65.10;;
31091;SDS011;67728;53.122;12.776;2023-05-31T05:43:42;317.70;;;64.80;;
31091;SDS011;67728;53.122;12.776;2023-05-31T05:45:13;320.23;;;65.10;;
31091;SDS011;67728;53.122;12.776;2023-05-31T05:46:44;327.30;;;66.60;;
31091;SDS011;67728;53.122;12.776;2023-05-31T05:48:17;319.40;;;65.60;;
31091;SDS011;67728;53.122;12.776;2023-05-31T05:49:49;318.60;;;65.33;;
31091;SDS011;67728;53.122;12.776;2023-05-31T05:51:20;320.90;;;65.60;;
31091;SDS011;67728;53.122;12.776;2023-05-31T05:52:52;318.93;;;65.97;;
31091;SDS011;67728;53.122;12.776;2023-05-31T05:54:24;321.63;;;66.77;;
31091;SDS011;67728;53.122;12.776;2023-05-31T05:55:56;322.63;;;73.77;;
31091;SDS011;67728;53.122;12.776;2023-05-31T05:57:27;330.27;;;76.23;;
31091;SDS011;67728;53.122;12.776;2023-05-31T05:58:59;325.27;;;75.33;;
31091;SDS011;67728;53.122;12.776;2023-05-31T06:00:30;321.50;;;73.13;;
31091;SDS011;67728;53.122;12.776;2023-05-31T06:02:02;325.83;;;76.07;;
31091;SDS011;67728;53.122;12.776;2023-05-31T06:03:35;323.50;;;74.17;;
31091;SDS011;67728;53.122;12.776;2023-05-31T06:05:07;321.03;;;70.33;;
31091;SDS011;67728;53.122;12.776;2023-05-31T06:06:39;326.37;;;81.40;;
31091;SDS011;67728;53.122;12.776;2023-05-31T06:08:11;325.80;;;73.83;;
31091;SDS011;67728;53.122;12.776;2023-05-31T06:09:42;319.83;;;77.10;;
31091;SDS011;67728;53.122;12.776;2023-05-31T06:11:14;321.00;;;73.50;;
31091;SDS011;67728;53.122;12.776;2023-05-31T06:12:48;322.20;;;73.63;;
31091;SDS011;67728;53.122;12.776;2023-05-31T06:14:20;320.37;;;73.20;;
31091;SDS011;67728;53.122;12.776;2023-05-31T06:15:51;320.60;;;73.97;;
31091;SDS011;67728;53.122;12.776;2023-05-31T06:17:23;321.57;;;74.80;;
31091;SDS011;67728;53.122;12.776;2023-05-31T06:18:56;319.30;;;75.17;;
31091;SDS011;67728;53.122;12.776;2023-05-31T06:20:28;323.17;;;77.77;;
31091;SDS011;67728;53.122;12.776;2023-05-31T06:22:00;321.33;;;74.90;;
31091;SDS011;67728;53.122;12.776;2023-05-31T06:23:32;325.23;;;77.00;;
31091;SDS011;67728;53.122;12.776;2023-05-31T06:25:04;325.27;;;84.30;;
31091;SDS011;67728;53.122;12.776;2023-05-31T06:26:36;325.43;;;78.80;;
31091;SDS011;67728;53.122;12.776;2023-05-31T06:28:08;327.63;;;80.60;;
31091;SDS011;67728;53.122;12.776;2023-05-31T06:29:40;321.23;;;75.30;;
31091;SDS011;67728;53.122;12.776;2023-05-31T06:31:12;324.00;;;77.30;;
31091;SDS011;67728;53.122;12.776;2023-05-31T06:32:44;323.80;;;77.80;;
31091;SDS011;67728;53.122;12.776;2023-05-31T06:34:17;321.73;;;76.73;;
31091;SDS011;67728;53.122;12.776;2023-05-31T06:35:48;325.67;;;93.63;;
31091;SDS011;67728;53.122;12.776;2023-05-31T06:37:20;321.47;;;78.57;;
31091;SDS011;67728;53.122;12.776;2023-05-31T06:38:52;324.30;;;78.80;;
31091;SDS011;67728;53.122;12.776;2023-05-31T06:40:24;324.40;;;79.17;;
31091;SDS011;67728;53.122;12.776;2023-05-31T06:41:56;321.53;;;80.17;;
31091;SDS011;67728;53.122;12.776;2023-05-31T06:43:29;323.47;;;79.43;;
31091;SDS011;67728;53.122;12.776;2023-05-31T06:45:01;323.17;;;78.70;;
31091;SDS011;67728;53.122;12.776;2023-05-31T06:46:34;327.73;;;80.70;;
31091;SDS011;67728;53.122;12.776;2023-05-31T06:48:05;323.57;;;80.73;;
31091;SDS011;67728;53.122;12.776;2023-05-31T06:49:38;325.30;;;81.67;;
31091;SDS011;67728;53.122;12.776;2023-05-31T06:51:10;322.60;;;81.17;;
31091;SDS011;67728;53.122;12.776;2023-05-31T06:52:41;325.87;;;81.10;;
31091;SDS011;67728;53.122;12.776;2023-05-31T06:54:13;319.17;;;78.87;;
31091;SDS011;67728;53.122;12.776;2023-05-31T06:55:45;319.40;;;80.47;;
31091;SDS011;67728;53.122;12.776;2023-05-31T06:57:16;333.23;;;107.63;;
31091;SDS011;67728;53.122;12.776;2023-05-31T06:58:48;329.33;;;95.23;;
31091;SDS011;67728;53.122;12.776;2023-05-31T07:00:21;323.97;;;90.63;;
31091;SDS011;67728;53.122;12.776;2023-05-31T07:01:52;324.17;;;83.93;;
31091;SDS011;67728;53.122;12.776;2023-05-31T07:03:24;324.50;;;84.10;;
31091;SDS011;67728;53.122;12.776;2023-05-31T07:04:57;324.87;;;85.43;;
31091;SDS011;67728;53.122;12.776;2023-05-31T07:06:30;327.00;;;86.80;;
31091;SDS011;67728;53.122;12.776;2023-05-31T07:08:01;324.37;;;86.37;;
31091;SDS011;67728;53.122;12.776;2023-05-31T07:09:33;324.97;;;87.03;;
31091;SDS011;67728;53.122;12.776;2023-05-31T07:11:05;327.43;;;88.97;;
31091;SDS011;67728;53.122;12.776;2023-05-31T07:12:36;325.00;;;90.97;;
31091;SDS011;67728;53.122;12.776;2023-05-31T07:14:08;322.95;;;90.10;;
31091;SDS011;67728;53.122;12.776;2023-05-31T07:15:40;326.93;;;92.53;;
31091;SDS011;67728;53.122;12.776;2023-05-31T07:17:12;326.52;;;92.63;;
31091;SDS011;67728;53.122;12.776;2023-05-31T07:18:43;330.50;;;93.53;;
31091;SDS011;67728;53.122;12.776;2023-05-31T07:20:17;323.10;;;93.95;;
31091;SDS011;67728;53.122;12.776;2023-05-31T07:21:49;330.73;;;96.60;;
31091;SDS011;67728;53.122;12.776;2023-05-31T07:23:20;327.33;;;95.68;;
31091;SDS011;67728;53.122;12.776;2023-05-31T07:24:52;326.37;;;99.13;;
31091;SDS011;67728;53.122;12.776;2023-05-31T07:26:24;325.65;;;99.28;;
31091;SDS011;67728;53.122;12.776;2023-05-31T07:27:55;326.58;;;100.45;;
31091;SDS011;67728;53.122;12.776;2023-05-31T07:29:27;326.63;;;101.75;;
31091;SDS011;67728;53.122;12.776;2023-05-31T07:30:58;325.83;;;102.40;;
31091;SDS011;67728;53.122;12.776;2023-05-31T07:32:30;329.92;;;102.45;;
31091;SDS011;67728;53.122;12.776;2023-05-31T07:34:02;329.17;;;103.97;;
31091;SDS011;67728;53.122;12.776;2023-05-31T07:35:35;328.80;;;103.47;;
31091;SDS011;67728;53.122;12.776;2023-05-31T07:37:06;332.98;;;105.53;;
31091;SDS011;67728;53.122;12.776;2023-05-31T07:38:38;329.23;;;103.90;;
31091;SDS011;67728;53.122;12.776;2023-05-31T07:40:10;327.15;;;104.07;;
31091;SDS011;67728;53.122;12.776;2023-05-31T07:41:44;331.88;;;105.60;;
31091;SDS011;67728;53.122;12.776;2023-05-31T07:43:16;327.40;;;104.10;;
31091;SDS011;67728;53.122;12.776;2023-05-31T07:44:50;328.13;;;106.13;;
31091;SDS011;67728;53.122;12.776;2023-05-31T07:46:23;327.15;;;103.90;;
31091;SDS011;67728;53.122;12.776;2023-05-31T07:47:55;327.25;;;105.45;;
31091;SDS011;67728;53.122;12.776;2023-05-31T07:49:28;327.85;;;105.95;;
31091;SDS011;67728;53.122;12.776;2023-05-31T07:51:01;331.20;;;107.20;;
31091;SDS011;67728;53.122;12.776;2023-05-31T07:52:32;330.77;;;107.13;;
31091;SDS011;67728;53.122;12.776;2023-05-31T07:54:04;331.73;;;109.10;;
31091;SDS011;67728;53.122;12.776;2023-05-31T07:55:36;332.55;;;109.20;;
31091;SDS011;67728;53.122;12.776;2023-05-31T07:57:08;331.10;;;109.30;;
31091;SDS011;67728;53.122;12.776;2023-05-31T07:58:40;330.23;;;109.50;;
31091;SDS011;67728;53.122;12.776;2023-05-31T08:00:11;330.38;;;109.70;;
31091;SDS011;67728;53.122;12.776;2023-05-31T08:01:44;328.98;;;108.95;;
31091;SDS011;67728;53.122;12.776;2023-05-31T08:03:16;328.80;;;107.03;;
31091;SDS011;67728;53.122;12.776;2023-05-31T08:04:48;331.67;;;105.53;;
31091;SDS011;67728;53.122;12.776;2023-05-31T08:06:21;331.02;;;107.97;;
31091;SDS011;67728;53.122;12.776;2023-05-31T08:07:53;328.73;;;106.40;;
31091;SDS011;67728;53.122;12.776;2023-05-31T08:09:24;330.13;;;106.80;;
31091;SDS011;67728;53.122;12.776;2023-05-31T08:10:56;331.13;;;109.88;;
31091;SDS011;67728;53.122;12.776;2023-05-31T08:12:28;331.48;;;108.30;;
31091;SDS011;67728;53.122;12.776;2023-05-31T08:13:59;329.80;;;109.50;;
31091;SDS011;67728;53.122;12.776;2023-05-31T08:15:31;341.77;;;115.00;;
31091;SDS011;67728;53.122;12.776;2023-05-31T08:17:03;328.88;;;111.85;;
31091;SDS011;67728;53.122;12.776;2023-05-31T08:18:35;332.00;;;114.72;;
31091;SDS011;67728;53.122;12.776;2023-05-31T08:20:07;327.88;;;117.85;;
31091;SDS011;67728;53.122;12.776;2023-05-31T08:21:41;331.15;;;122.05;;
31091;SDS011;67728;53.122;12.776;2023-05-31T08:23:18;331.92;;;124.63;;
31091;SDS011;67728;53.122;12.776;2023-05-31T08:24:50;327.85;;;124.10;;
31091;SDS011;67728;53.122;12.776;2023-05-31T08:26:22;335.40;;;127.38;;
31091;SDS011;67728;53.122;12.776;2023-05-31T08:27:53;331.13;;;126.70;;
31091;SDS011;67728;53.122;12.776;2023-05-31T08:29:25;333.52;;;129.02;;
31091;SDS011;67728;53.122;12.776;2023-05-31T08:30:57;334.80;;;129.93;;
31091;SDS011;67728;53.122;12.776;2023-05-31T08:32:28;335.83;;;129.32;;
31091;SDS011;67728;53.122;12.776;2023-05-31T08:34:00;334.88;;;128.77;;
31091;SDS011;67728;53.122;12.776;2023-05-31T08:35:32;335.35;;;128.52;;
31091;SDS011;67728;53.122;12.776;2023-05-31T08:37:05;328.75;;;123.65;;
31091;SDS011;67728;53.122;12.776;2023-05-31T08:38:36;332.88;;;128.32;;
31091;SDS011;67728;53.122;12.776;2023-05-31T08:40:08;334.27;;;131.13;;
31091;SDS011;67728;53.122;12.776;2023-05-31T08:41:43;336.58;;;130.23;;
31091;SDS011;67728;53.122;12.776;2023-05-31T08:43:21;330.40;;;126.28;;